sensor_id;sensor_type;location;lat;lon;timestamp;P1;durP1;ratioP1;P2;durP2;ratioP2
28766;SDS011;15921;52.034;20.650;2023-06-22T00:00:56;39.72;;;30.15;;
28766;SDS011;15921;52.034;20.650;2023-06-22T00:03:22;38.38;;;29.95;;
28766;SDS011;15921;52.034;20.650;2023-06-22T00:05:49;39.72;;;28.90;;
28766;SDS011;15921;52.034;20.650;2023-06-22T00:08:16;39.47;;;30.00;;
28766;SDS011;15921;52.034;20.650;2023-06-22T00:10:42;31.17;;;27.13;;
28766;SDS011;15921;52.034;20.650;2023-06-22T00:13:08;36.67;;;29.27;;
28766;SDS011;15921;52.034;20.650;2023-06-22T00:15:35;36.03;;;27.15;;
28766;SDS011;15921;52.034;20.650;2023-06-22T00:18:01;33.55;;;26.90;;
28766;SDS011;15921;52.034;20.650;2023-06-22T00:20:27;40.63;;;31.92;;
28766;SDS011;15921;52.034;20.650;2023-06-22T00:22:54;44.80;;;30.92;;
28766;SDS011;15921;52.034;20.650;2023-06-22T00:25:20;36.88;;;29.77;;
28766;SDS011;15921;52.034;20.650;2023-06-22T00:27:46;34.17;;;27.67;;
28766;SDS011;15921;52.034;20.650;2023-06-22T00:30:13;40.60;;;29.65;;
28766;SDS011;15921;52.034;20.650;2023-06-22T00:32:39;39.70;;;28.95;;
28766;SDS011;15921;52.034;20.650;2023-06-22T00:35:04;41.35;;;30.25;;
28766;SDS011;15921;52.034;20.650;2023-06-22T00:37:30;40.95;;;31.55;;
28766;SDS011;15921;52.034;20.650;2023-06-22T00:39:56;42.78;;;30.90;;
28766;SDS011;15921;52.034;20.650;2023-06-22T00:42:22;46.63;;;34.53;;
28766;SDS011;15921;52.034;20.650;2023-06-22T00:44:48;39.80;;;30.98;;
28766;SDS011;15921;52.034;20.650;2023-06-22T00:47:14;52.70;;;33.67;;
28766;SDS011;15921;52.034;20.650;2023-06-22T00:49:42;43.85;;;31.98;;
28766;SDS011;15921;52.034;20.650;2023-06-22T00:52:08;40.67;;;31.05;;
28766;SDS011;15921;52.034;20.650;2023-06-22T00:54:41;35.60;;;29.30;;
28766;SDS011;15921;52.034;20.650;2023-06-22T00:57:13;38.00;;;29.48;;
28766;SDS011;15921;52.034;20.650;2023-06-22T00:59:46;40.70;;;30.58;;
28766;SDS011;15921;52.034;20.650;2023-06-22T01:02:13;34.85;;;27.30;;
28766;SDS011;15921;52.034;20.650;2023-06-22T01:04:39;40.25;;;28.58;;
28766;SDS011;15921;52.034;20.650;2023-06-22T01:12:38;39.22;;;28.60;;
28766;SDS011;15921;52.034;20.650;2023-06-22T01:15:13;37.38;;;27.42;;
28766;SDS011;15921;52.034;20.650;2023-06-22T01:17:46;41.00;;;30.40;;
28766;SDS011;15921;52.034;20.650;2023-06-22T01:20:13;41.70;;;31.25;;
28766;SDS011;15921;52.034;20.650;2023-06-22T01:31:10;53.13;;;35.00;;
28766;SDS011;15921;52.034;20.650;2023-06-22T01:33:41;44.30;;;34.00;;
28766;SDS011;15921;52.034;20.650;2023-06-22T01:36:08;42.95;;;32.35;;
28766;SDS011;15921;52.034;20.650;2023-06-22T01:38:35;52.15;;;37.00;;
28766;SDS011;15921;52.034;20.650;2023-06-22T01:41:02;56.88;;;37.58;;
28766;SDS011;15921;52.034;20.650;2023-06-22T01:43:28;48.95;;;34.92;;
28766;SDS011;15921;52.034;20.650;2023-06-22T01:45:55;59.58;;;41.10;;
28766;SDS011;15921;52.034;20.650;2023-06-22T01:48:22;58.13;;;41.47;;
28766;SDS011;15921;52.034;20.650;2023-06-22T01:50:48;46.50;;;35.65;;
28766;SDS011;15921;52.034;20.650;2023-06-22T01:53:14;50.45;;;34.80;;
28766;SDS011;15921;52.034;20.650;2023-06-22T01:55:42;65.15;;;44.20;;
28766;SDS011;15921;52.034;20.650;2023-06-22T01:58:08;55.75;;;37.67;;
28766;SDS011;15921;52.034;20.650;2023-06-22T02:00:35;65.65;;;45.78;;
28766;SDS011;15921;52.034;20.650;2023-06-22T02:06:01;76.55;;;49.20;;
28766;SDS011;15921;52.034;20.650;2023-06-22T02:08:39;66.35;;;46.42;;
28766;SDS011;15921;52.034;20.650;2023-06-22T02:11:07;76.85;;;46.25;;
28766;SDS011;15921;52.034;20.650;2023-06-22T02:13:36;70.43;;;45.50;;
28766;SDS011;15921;52.034;20.650;2023-06-22T02:16:03;73.22;;;45.40;;
28766;SDS011;15921;52.034;20.650;2023-06-22T02:18:29;73.53;;;48.20;;
28766;SDS011;15921;52.034;20.650;2023-06-22T02:20:55;70.43;;;46.83;;
28766;SDS011;15921;52.034;20.650;2023-06-22T02:23:20;81.45;;;53.42;;
28766;SDS011;15921;52.034;20.650;2023-06-22T02:25:46;80.90;;;53.55;;
28766;SDS011;15921;52.034;20.650;2023-06-22T02:28:12;76.15;;;51.85;;
28766;SDS011;15921;52.034;20.650;2023-06-22T02:30:37;74.45;;;50.22;;
28766;SDS011;15921;52.034;20.650;2023-06-22T02:33:03;85.13;;;52.33;;
28766;SDS011;15921;52.034;20.650;2023-06-22T02:35:29;76.35;;;50.90;;
28766;SDS011;15921;52.034;20.650;2023-06-22T02:38:01;80.78;;;52.70;;
28766;SDS011;15921;52.034;20.650;2023-06-22T02:40:28;82.88;;;53.58;;
28766;SDS011;15921;52.034;20.650;2023-06-22T02:42:55;85.40;;;53.60;;
28766;SDS011;15921;52.034;20.650;2023-06-22T02:45:23;84.03;;;51.33;;
28766;SDS011;15921;52.034;20.650;2023-06-22T02:47:49;72.50;;;46.38;;
28766;SDS011;15921;52.034;20.650;2023-06-22T02:50:15;77.40;;;47.90;;
28766;SDS011;15921;52.034;20.650;2023-06-22T02:52:40;74.93;;;47.10;;
28766;SDS011;15921;52.034;20.650;2023-06-22T02:55:06;62.10;;;43.70;;
28766;SDS011;15921;52.034;20.650;2023-06-22T02:57:33;71.68;;;45.67;;
28766;SDS011;15921;52.034;20.650;2023-06-22T02:59:59;67.93;;;43.15;;
28766;SDS011;15921;52.034;20.650;2023-06-22T03:02:25;68.45;;;45.10;;
28766;SDS011;15921;52.034;20.650;2023-06-22T03:04:51;68.63;;;45.30;;
28766;SDS011;15921;52.034;20.650;2023-06-22T03:07:18;64.97;;;44.80;;
28766;SDS011;15921;52.034;20.650;2023-06-22T03:09:44;63.67;;;43.72;;
28766;SDS011;15921;52.034;20.650;2023-06-22T03:12:10;68.28;;;43.95;;
28766;SDS011;15921;52.034;20.650;2023-06-22T03:14:36;61.55;;;42.38;;
28766;SDS011;15921;52.034;20.650;2023-06-22T03:17:02;58.10;;;37.35;;
28766;SDS011;15921;52.034;20.650;2023-06-22T03:19:29;61.50;;;41.13;;
28766;SDS011;15921;52.034;20.650;2023-06-22T03:21:56;57.60;;;37.50;;
28766;SDS011;15921;52.034;20.650;2023-06-22T03:24:22;62.60;;;41.88;;
28766;SDS011;15921;52.034;20.650;2023-06-22T03:26:48;61.92;;;40.38;;
28766;SDS011;15921;52.034;20.650;2023-06-22T03:29:14;55.22;;;37.35;;
28766;SDS011;15921;52.034;20.650;2023-06-22T03:31:40;57.55;;;37.88;;
28766;SDS011;15921;52.034;20.650;2023-06-22T03:34:06;55.63;;;37.65;;
28766;SDS011;15921;52.034;20.650;2023-06-22T03:36:32;56.70;;;38.83;;
28766;SDS011;15921;52.034;20.650;2023-06-22T03:38:57;57.15;;;38.30;;
28766;SDS011;15921;52.034;20.650;2023-06-22T03:41:23;52.22;;;36.67;;
28766;SDS011;15921;52.034;20.650;2023-06-22T03:43:49;57.95;;;36.60;;
28766;SDS011;15921;52.034;20.650;2023-06-22T03:46:15;50.95;;;36.05;;
28766;SDS011;15921;52.034;20.650;2023-06-22T03:48:40;51.30;;;36.33;;
28766;SDS011;15921;52.034;20.650;2023-06-22T03:51:06;49.53;;;35.03;;
28766;SDS011;15921;52.034;20.650;2023-06-22T03:53:31;50.10;;;35.25;;
28766;SDS011;15921;52.034;20.650;2023-06-22T03:55:57;57.13;;;34.85;;
28766;SDS011;15921;52.034;20.650;2023-06-22T03:58:23;48.30;;;32.88;;
28766;SDS011;15921;52.034;20.650;2023-06-22T04:00:49;47.20;;;32.92;;
28766;SDS011;15921;52.034;20.650;2023-06-22T04:03:16;50.83;;;33.03;;
28766;SDS011;15921;52.034;20.650;2023-06-22T04:05:43;48.60;;;31.27;;
28766;SDS011;15921;52.034;20.650;2023-06-22T04:08:10;39.33;;;30.52;;
28766;SDS011;15921;52.034;20.650;2023-06-22T04:10:37;42.80;;;30.33;;
28766;SDS011;15921;52.034;20.650;2023-06-22T04:13:03;40.58;;;27.30;;
28766;SDS011;15921;52.034;20.650;2023-06-22T04:15:29;43.53;;;29.77;;
28766;SDS011;15921;52.034;20.650;2023-06-22T04:17:55;43.22;;;30.50;;
28766;SDS011;15921;52.034;20.650;2023-06-22T04:20:21;38.60;;;29.05;;
28766;SDS011;15921;52.034;20.650;2023-06-22T04:22:47;39.92;;;27.45;;
28766;SDS011;15921;52.034;20.650;2023-06-22T04:25:13;40.50;;;28.67;;
28766;SDS011;15921;52.034;20.650;2023-06-22T04:27:39;45.40;;;31.02;;
28766;SDS011;15921;52.034;20.650;2023-06-22T04:30:08;69.80;;;46.03;;
28766;SDS011;15921;52.034;20.650;2023-06-22T04:32:34;39.30;;;30.20;;
28766;SDS011;15921;52.034;20.650;2023-06-22T04:35:04;42.85;;;28.23;;
28766;SDS011;15921;52.034;20.650;2023-06-22T04:37:31;40.13;;;26.02;;
28766;SDS011;15921;52.034;20.650;2023-06-22T04:39:57;34.95;;;25.77;;
28766;SDS011;15921;52.034;20.650;2023-06-22T04:42:25;37.40;;;25.05;;
28766;SDS011;15921;52.034;20.650;2023-06-22T04:44:51;35.55;;;25.35;;
28766;SDS011;15921;52.034;20.650;2023-06-22T04:47:17;35.80;;;26.55;;
28766;SDS011;15921;52.034;20.650;2023-06-22T04:49:43;31.27;;;23.42;;
28766;SDS011;15921;52.034;20.650;2023-06-22T04:52:09;32.00;;;23.65;;
28766;SDS011;15921;52.034;20.650;2023-06-22T04:54:37;31.38;;;22.60;;
28766;SDS011;15921;52.034;20.650;2023-06-22T04:57:04;35.42;;;24.60;;
28766;SDS011;15921;52.034;20.650;2023-06-22T04:59:35;36.70;;;25.95;;
28766;SDS011;15921;52.034;20.650;2023-06-22T05:02:01;29.70;;;22.88;;
28766;SDS011;15921;52.034;20.650;2023-06-22T05:04:28;29.08;;;20.45;;
28766;SDS011;15921;52.034;20.650;2023-06-22T05:06:58;30.60;;;22.83;;
28766;SDS011;15921;52.034;20.650;2023-06-22T05:09:25;27.25;;;20.13;;
28766;SDS011;15921;52.034;20.650;2023-06-22T05:11:51;27.20;;;20.88;;
28766;SDS011;15921;52.034;20.650;2023-06-22T05:14:17;28.52;;;21.42;;
28766;SDS011;15921;52.034;20.650;2023-06-22T05:16:44;33.05;;;22.42;;
28766;SDS011;15921;52.034;20.650;2023-06-22T05:19:10;32.50;;;20.95;;
28766;SDS011;15921;52.034;20.650;2023-06-22T05:21:37;25.75;;;21.08;;
28766;SDS011;15921;52.034;20.650;2023-06-22T05:24:03;25.42;;;19.25;;
28766;SDS011;15921;52.034;20.650;2023-06-22T05:26:30;25.77;;;19.45;;
28766;SDS011;15921;52.034;20.650;2023-06-22T05:28:56;27.38;;;20.27;;
28766;SDS011;15921;52.034;20.650;2023-06-22T05:31:23;25.15;;;19.25;;
28766;SDS011;15921;52.034;20.650;2023-06-22T05:33:49;25.33;;;18.10;;
28766;SDS011;15921;52.034;20.650;2023-06-22T05:36:17;21.42;;;17.27;;
28766;SDS011;15921;52.034;20.650;2023-06-22T05:38:45;23.92;;;17.10;;
28766;SDS011;15921;52.034;20.650;2023-06-22T05:41:11;26.05;;;16.48;;
28766;SDS011;15921;52.034;20.650;2023-06-22T05:43:36;24.95;;;17.70;;
28766;SDS011;15921;52.034;20.650;2023-06-22T05:46:03;21.52;;;17.33;;
28766;SDS011;15921;52.034;20.650;2023-06-22T05:48:29;23.38;;;17.02;;
28766;SDS011;15921;52.034;20.650;2023-06-22T05:50:55;25.02;;;16.50;;
28766;SDS011;15921;52.034;20.650;2023-06-22T05:53:21;21.30;;;15.90;;
28766;SDS011;15921;52.034;20.650;2023-06-22T05:55:47;24.50;;;16.23;;
28766;SDS011;15921;52.034;20.650;2023-06-22T05:58:13;23.92;;;15.45;;
28766;SDS011;15921;52.034;20.650;2023-06-22T06:00:39;24.67;;;17.35;;
28766;SDS011;15921;52.034;20.650;2023-06-22T06:03:06;22.02;;;15.48;;
28766;SDS011;15921;52.034;20.650;2023-06-22T06:05:33;26.08;;;16.90;;
28766;SDS011;15921;52.034;20.650;2023-06-22T06:08:02;22.35;;;15.65;;
28766;SDS011;15921;52.034;20.650;2023-06-22T06:10:32;17.70;;;13.98;;
28766;SDS011;15921;52.034;20.650;2023-06-22T06:12:59;18.63;;;14.30;;
28766;SDS011;15921;52.034;20.650;2023-06-22T06:15:27;19.02;;;14.00;;
28766;SDS011;15921;52.034;20.650;2023-06-22T06:17:53;20.77;;;13.75;;
28766;SDS011;15921;52.034;20.650;2023-06-22T06:20:20;15.15;;;10.98;;
28766;SDS011;15921;52.034;20.650;2023-06-22T06:22:47;15.63;;;12.15;;
28766;SDS011;15921;52.034;20.650;2023-06-22T06:25:14;21.17;;;12.48;;
28766;SDS011;15921;52.034;20.650;2023-06-22T06:27:45;16.25;;;11.93;;
28766;SDS011;15921;52.034;20.650;2023-06-22T06:30:11;18.33;;;11.32;;
28766;SDS011;15921;52.034;20.650;2023-06-22T06:32:38;18.60;;;12.30;;
28766;SDS011;15921;52.034;20.650;2023-06-22T06:35:08;14.75;;;10.60;;
28766;SDS011;15921;52.034;20.650;2023-06-22T06:37:41;15.27;;;10.88;;
28766;SDS011;15921;52.034;20.650;2023-06-22T06:40:09;17.52;;;11.50;;
28766;SDS011;15921;52.034;20.650;2023-06-22T06:42:40;19.25;;;11.85;;
28766;SDS011;15921;52.034;20.650;2023-06-22T06:45:09;18.52;;;11.40;;
28766;SDS011;15921;52.034;20.650;2023-06-22T06:47:36;15.30;;;10.82;;
28766;SDS011;15921;52.034;20.650;2023-06-22T06:50:02;16.50;;;10.30;;
28766;SDS011;15921;52.034;20.650;2023-06-22T06:52:29;14.07;;;10.70;;
28766;SDS011;15921;52.034;20.650;2023-06-22T06:54:54;19.55;;;10.52;;
28766;SDS011;15921;52.034;20.650;2023-06-22T06:57:20;15.05;;;9.98;;
28766;SDS011;15921;52.034;20.650;2023-06-22T06:59:47;16.63;;;9.98;;
28766;SDS011;15921;52.034;20.650;2023-06-22T07:02:14;14.98;;;10.07;;
28766;SDS011;15921;52.034;20.650;2023-06-22T07:04:40;17.52;;;8.93;;
28766;SDS011;15921;52.034;20.650;2023-06-22T07:07:06;13.25;;;8.65;;
28766;SDS011;15921;52.034;20.650;2023-06-22T07:09:32;17.80;;;8.85;;
28766;SDS011;15921;52.034;20.650;2023-06-22T07:11:58;12.77;;;9.00;;
28766;SDS011;15921;52.034;20.650;2023-06-22T07:14:23;13.73;;;9.38;;
28766;SDS011;15921;52.034;20.650;2023-06-22T07:16:49;15.10;;;9.57;;
28766;SDS011;15921;52.034;20.650;2023-06-22T07:19:15;11.80;;;9.15;;
28766;SDS011;15921;52.034;20.650;2023-06-22T07:21:41;16.85;;;9.23;;
28766;SDS011;15921;52.034;20.650;2023-06-22T07:24:06;13.40;;;9.48;;
28766;SDS011;15921;52.034;20.650;2023-06-22T07:26:33;15.63;;;8.00;;
28766;SDS011;15921;52.034;20.650;2023-06-22T07:28:59;14.73;;;8.50;;
28766;SDS011;15921;52.034;20.650;2023-06-22T07:31:25;9.25;;;6.97;;
28766;SDS011;15921;52.034;20.650;2023-06-22T07:33:51;15.95;;;7.05;;
28766;SDS011;15921;52.034;20.650;2023-06-22T07:36:17;10.60;;;7.07;;
28766;SDS011;15921;52.034;20.650;2023-06-22T07:38:43;12.23;;;7.22;;
28766;SDS011;15921;52.034;20.650;2023-06-22T07:41:09;13.55;;;7.15;;
28766;SDS011;15921;52.034;20.650;2023-06-22T07:43:34;12.00;;;7.35;;
28766;SDS011;15921;52.034;20.650;2023-06-22T07:46:04;10.85;;;6.97;;
28766;SDS011;15921;52.034;20.650;2023-06-22T07:48:30;13.35;;;6.38;;
28766;SDS011;15921;52.034;20.650;2023-06-22T07:50:56;9.40;;;6.45;;
28766;SDS011;15921;52.034;20.650;2023-06-22T07:53:22;9.68;;;6.88;;
28766;SDS011;15921;52.034;20.650;2023-06-22T07:55:48;10.80;;;7.00;;
28766;SDS011;15921;52.034;20.650;2023-06-22T07:58:14;12.80;;;7.30;;
28766;SDS011;15921;52.034;20.650;2023-06-22T08:00:40;10.07;;;6.25;;
28766;SDS011;15921;52.034;20.650;2023-06-22T08:03:06;11.45;;;6.35;;
28766;SDS011;15921;52.034;20.650;2023-06-22T08:05:32;9.93;;;6.30;;
28766;SDS011;15921;52.034;20.650;2023-06-22T08:07:58;9.40;;;5.57;;
28766;SDS011;15921;52.034;20.650;2023-06-22T08:10:24;13.68;;;6.15;;
28766;SDS011;15921;52.034;20.650;2023-06-22T08:12:49;8.65;;;5.60;;
28766;SDS011;15921;52.034;20.650;2023-06-22T08:15:17;9.95;;;5.68;;
28766;SDS011;15921;52.034;20.650;2023-06-22T08:17:43;14.15;;;6.38;;
28766;SDS011;15921;52.034;20.650;2023-06-22T08:20:10;9.55;;;5.38;;
28766;SDS011;15921;52.034;20.650;2023-06-22T08:22:40;6.70;;;5.53;;
28766;SDS011;15921;52.034;20.650;2023-06-22T08:25:06;8.48;;;5.78;;
28766;SDS011;15921;52.034;20.650;2023-06-22T08:27:33;6.90;;;5.07;;
28766;SDS011;15921;52.034;20.650;2023-06-22T08:29:59;8.13;;;4.90;;
28766;SDS011;15921;52.034;20.650;2023-06-22T08:32:27;7.32;;;4.88;;
28766;SDS011;15921;52.034;20.650;2023-06-22T08:34:53;6.60;;;5.32;;
28766;SDS011;15921;52.034;20.650;2023-06-22T08:37:20;8.05;;;5.25;;
28766;SDS011;15921;52.034;20.650;2023-06-22T08:39:46;10.38;;;4.63;;
28766;SDS011;15921;52.034;20.650;2023-06-22T08:42:12;7.05;;;4.00;;
28766;SDS011;15921;52.034;20.650;2023-06-22T08:44:37;6.20;;;4.15;;
28766;SDS011;15921;52.034;20.650;2023-06-22T08:47:03;8.30;;;4.78;;
28766;SDS011;15921;52.034;20.650;2023-06-22T08:49:29;5.68;;;3.60;;
28766;SDS011;15921;52.034;20.650;2023-06-22T08:51:55;6.95;;;3.92;;
28766;SDS011;15921;52.034;20.650;2023-06-22T08:54:22;5.15;;;3.67;;
28766;SDS011;15921;52.034;20.650;2023-06-22T08:56:48;6.30;;;3.65;;
28766;SDS011;15921;52.034;20.650;2023-06-22T08:59:13;8.00;;;4.50;;
28766;SDS011;15921;52.034;20.650;2023-06-22T09:01:39;8.23;;;4.25;;
28766;SDS011;15921;52.034;20.650;2023-06-22T09:04:05;11.45;;;4.72;;
28766;SDS011;15921;52.034;20.650;2023-06-22T09:06:32;33.75;;;6.07;;
28766;SDS011;15921;52.034;20.650;2023-06-22T09:08:58;7.10;;;3.38;;
28766;SDS011;15921;52.034;20.650;2023-06-22T09:11:27;5.05;;;3.22;;
28766;SDS011;15921;52.034;20.650;2023-06-22T09:13:52;8.50;;;4.30;;
28766;SDS011;15921;52.034;20.650;2023-06-22T09:16:18;10.30;;;4.28;;
28766;SDS011;15921;52.034;20.650;2023-06-22T09:18:48;5.25;;;3.88;;
28766;SDS011;15921;52.034;20.650;2023-06-22T09:21:13;10.07;;;4.35;;
28766;SDS011;15921;52.034;20.650;2023-06-22T09:23:39;12.40;;;4.13;;
28766;SDS011;15921;52.034;20.650;2023-06-22T09:26:05;8.65;;;4.07;;
28766;SDS011;15921;52.034;20.650;2023-06-22T09:28:31;6.70;;;3.65;;
28766;SDS011;15921;52.034;20.650;2023-06-22T09:30:57;6.00;;;4.10;;
28766;SDS011;15921;52.034;20.650;2023-06-22T09:33:24;8.00;;;4.22;;
28766;SDS011;15921;52.034;20.650;2023-06-22T09:35:51;7.03;;;3.97;;
28766;SDS011;15921;52.034;20.650;2023-06-22T09:38:17;4.97;;;3.67;;
28766;SDS011;15921;52.034;20.650;2023-06-22T09:40:42;9.77;;;4.13;;
28766;SDS011;15921;52.034;20.650;2023-06-22T09:43:08;7.88;;;3.80;;
28766;SDS011;15921;52.034;20.650;2023-06-22T09:45:34;9.07;;;3.85;;
28766;SDS011;15921;52.034;20.650;2023-06-22T09:47:59;5.65;;;3.90;;
28766;SDS011;15921;52.034;20.650;2023-06-22T09:50:25;6.45;;;3.80;;
28766;SDS011;15921;52.034;20.650;2023-06-22T09:52:51;3.45;;;3.10;;
28766;SDS011;15921;52.034;20.650;2023-06-22T09:55:20;7.20;;;3.85;;
28766;SDS011;15921;52.034;20.650;2023-06-22T09:57:46;5.57;;;3.60;;
28766;SDS011;15921;52.034;20.650;2023-06-22T10:00:12;10.43;;;3.55;;
28766;SDS011;15921;52.034;20.650;2023-06-22T10:02:40;11.00;;;3.38;;
28766;SDS011;15921;52.034;20.650;2023-06-22T10:05:06;8.25;;;3.20;;
28766;SDS011;15921;52.034;20.650;2023-06-22T10:07:32;6.38;;;3.35;;
28766;SDS011;15921;52.034;20.650;2023-06-22T10:09:58;7.13;;;3.65;;
28766;SDS011;15921;52.034;20.650;2023-06-22T10:12:25;7.20;;;4.18;;
28766;SDS011;15921;52.034;20.650;2023-06-22T10:14:52;6.03;;;3.55;;
28766;SDS011;15921;52.034;20.650;2023-06-22T10:17:18;13.15;;;3.90;;
28766;SDS011;15921;52.034;20.650;2023-06-22T10:19:43;10.95;;;3.63;;
28766;SDS011;15921;52.034;20.650;2023-06-22T10:22:09;5.75;;;3.33;;
28766;SDS011;15921;52.034;20.650;2023-06-22T10:24:35;10.80;;;3.28;;
28766;SDS011;15921;52.034;20.650;2023-06-22T10:27:00;4.40;;;2.97;;
28766;SDS011;15921;52.034;20.650;2023-06-22T10:29:26;5.97;;;3.15;;
28766;SDS011;15921;52.034;20.650;2023-06-22T10:31:52;5.03;;;3.55;;
28766;SDS011;15921;52.034;20.650;2023-06-22T10:34:17;4.55;;;3.40;;
28766;SDS011;15921;52.034;20.650;2023-06-22T10:36:43;4.03;;;3.22;;
28766;SDS011;15921;52.034;20.650;2023-06-22T10:39:11;6.88;;;3.42;;
28766;SDS011;15921;52.034;20.650;2023-06-22T10:41:37;5.10;;;3.55;;
28766;SDS011;15921;52.034;20.650;2023-06-22T10:44:02;4.40;;;3.20;;
28766;SDS011;15921;52.034;20.650;2023-06-22T10:46:28;8.00;;;3.55;;
28766;SDS011;15921;52.034;20.650;2023-06-22T10:48:54;5.75;;;3.72;;
28766;SDS011;15921;52.034;20.650;2023-06-22T10:51:22;6.50;;;3.72;;
28766;SDS011;15921;52.034;20.650;2023-06-22T10:53:47;8.02;;;3.35;;
28766;SDS011;15921;52.034;20.650;2023-06-22T10:56:13;7.57;;;4.03;;
28766;SDS011;15921;52.034;20.650;2023-06-22T10:58:38;4.95;;;3.80;;
28766;SDS011;15921;52.034;20.650;2023-06-22T11:01:04;4.45;;;2.95;;
28766;SDS011;15921;52.034;20.650;2023-06-22T11:03:30;5.53;;;3.60;;
28766;SDS011;15921;52.034;20.650;2023-06-22T11:05:55;5.57;;;3.22;;
28766;SDS011;15921;52.034;20.650;2023-06-22T11:08:21;4.95;;;3.60;;
28766;SDS011;15921;52.034;20.650;2023-06-22T11:10:47;6.65;;;3.35;;
28766;SDS011;15921;52.034;20.650;2023-06-22T11:13:12;8.75;;;3.80;;
28766;SDS011;15921;52.034;20.650;2023-06-22T11:15:38;10.77;;;3.78;;
28766;SDS011;15921;52.034;20.650;2023-06-22T11:18:05;5.63;;;3.90;;
28766;SDS011;15921;52.034;20.650;2023-06-22T11:20:32;9.95;;;3.83;;
28766;SDS011;15921;52.034;20.650;2023-06-22T11:23:03;5.95;;;3.55;;
28766;SDS011;15921;52.034;20.650;2023-06-22T11:25:30;3.63;;;3.25;;
28766;SDS011;15921;52.034;20.650;2023-06-22T11:27:56;12.75;;;4.03;;
28766;SDS011;15921;52.034;20.650;2023-06-22T11:30:21;8.20;;;3.72;;
28766;SDS011;15921;52.034;20.650;2023-06-22T11:32:48;7.90;;;3.50;;
28766;SDS011;15921;52.034;20.650;2023-06-22T11:35:13;5.32;;;3.20;;
28766;SDS011;15921;52.034;20.650;2023-06-22T11:37:39;5.75;;;3.60;;
28766;SDS011;15921;52.034;20.650;2023-06-22T11:40:05;8.30;;;3.92;;
28766;SDS011;15921;52.034;20.650;2023-06-22T11:42:35;5.65;;;3.40;;
28766;SDS011;15921;52.034;20.650;2023-06-22T11:45:01;7.78;;;3.83;;
28766;SDS011;15921;52.034;20.650;2023-06-22T11:47:29;8.52;;;4.07;;
28766;SDS011;15921;52.034;20.650;2023-06-22T11:49:55;4.72;;;3.30;;
28766;SDS011;15921;52.034;20.650;2023-06-22T11:52:21;6.05;;;3.38;;
28766;SDS011;15921;52.034;20.650;2023-06-22T11:54:46;9.60;;;3.75;;
28766;SDS011;15921;52.034;20.650;2023-06-22T11:57:12;10.65;;;3.88;;
28766;SDS011;15921;52.034;20.650;2023-06-22T11:59:38;5.85;;;3.60;;
28766;SDS011;15921;52.034;20.650;2023-06-22T12:02:03;6.97;;;3.60;;
28766;SDS011;15921;52.034;20.650;2023-06-22T12:04:30;4.75;;;3.60;;
28766;SDS011;15921;52.034;20.650;2023-06-22T12:06:56;6.57;;;3.25;;
28766;SDS011;15921;52.034;20.650;2023-06-22T12:09:23;4.32;;;3.42;;
28766;SDS011;15921;52.034;20.650;2023-06-22T12:11:49;5.00;;;2.95;;
28766;SDS011;15921;52.034;20.650;2023-06-22T12:14:14;8.73;;;3.65;;
28766;SDS011;15921;52.034;20.650;2023-06-22T12:16:40;13.10;;;3.90;;
28766;SDS011;15921;52.034;20.650;2023-06-22T12:19:06;3.83;;;3.42;;
28766;SDS011;15921;52.034;20.650;2023-06-22T12:21:32;3.65;;;3.28;;
28766;SDS011;15921;52.034;20.650;2023-06-22T12:23:57;3.88;;;3.47;;
28766;SDS011;15921;52.034;20.650;2023-06-22T12:26:23;10.75;;;2.95;;
28766;SDS011;15921;52.034;20.650;2023-06-22T12:28:49;5.63;;;3.20;;
28766;SDS011;15921;52.034;20.650;2023-06-22T12:31:14;3.50;;;2.88;;
28766;SDS011;15921;52.034;20.650;2023-06-22T12:33:40;4.22;;;2.83;;
28766;SDS011;15921;52.034;20.650;2023-06-22T12:36:06;7.10;;;2.83;;
28766;SDS011;15921;52.034;20.650;2023-06-22T12:38:32;2.95;;;2.55;;
28766;SDS011;15921;52.034;20.650;2023-06-22T12:40:58;6.10;;;3.35;;
28766;SDS011;15921;52.034;20.650;2023-06-22T12:43:24;6.47;;;2.85;;
28766;SDS011;15921;52.034;20.650;2023-06-22T12:45:49;4.40;;;3.42;;
28766;SDS011;15921;52.034;20.650;2023-06-22T12:48:15;4.95;;;3.28;;
28766;SDS011;15921;52.034;20.650;2023-06-22T12:50:42;6.28;;;3.40;;
28766;SDS011;15921;52.034;20.650;2023-06-22T12:53:07;3.40;;;3.03;;
28766;SDS011;15921;52.034;20.650;2023-06-22T12:55:33;3.50;;;3.13;;
28766;SDS011;15921;52.034;20.650;2023-06-22T12:57:59;5.13;;;3.30;;
28766;SDS011;15921;52.034;20.650;2023-06-22T13:00:24;7.20;;;3.05;;
28766;SDS011;15921;52.034;20.650;2023-06-22T13:02:50;7.25;;;3.40;;
28766;SDS011;15921;52.034;20.650;2023-06-22T13:05:16;2.97;;;2.70;;
28766;SDS011;15921;52.034;20.650;2023-06-22T13:07:41;4.30;;;2.83;;
28766;SDS011;15921;52.034;20.650;2023-06-22T13:10:08;8.13;;;2.85;;
28766;SDS011;15921;52.034;20.650;2023-06-22T13:12:33;4.10;;;2.38;;
28766;SDS011;15921;52.034;20.650;2023-06-22T13:14:59;4.65;;;2.80;;
28766;SDS011;15921;52.034;20.650;2023-06-22T13:17:25;3.28;;;2.70;;
28766;SDS011;15921;52.034;20.650;2023-06-22T13:19:50;5.15;;;2.60;;
28766;SDS011;15921;52.034;20.650;2023-06-22T13:22:32;8.93;;;3.28;;
28766;SDS011;15921;52.034;20.650;2023-06-22T13:25:05;6.85;;;2.95;;
28766;SDS011;15921;52.034;20.650;2023-06-22T13:27:32;6.85;;;3.53;;
28766;SDS011;15921;52.034;20.650;2023-06-22T13:29:58;4.22;;;2.97;;
28766;SDS011;15921;52.034;20.650;2023-06-22T13:32:23;5.00;;;2.60;;
28766;SDS011;15921;52.034;20.650;2023-06-22T13:34:49;7.63;;;3.10;;
28766;SDS011;15921;52.034;20.650;2023-06-22T13:37:16;4.88;;;3.30;;
28766;SDS011;15921;52.034;20.650;2023-06-22T13:39:42;4.63;;;2.97;;
28766;SDS011;15921;52.034;20.650;2023-06-22T13:42:08;6.25;;;3.38;;
28766;SDS011;15921;52.034;20.650;2023-06-22T13:44:34;4.38;;;3.20;;
28766;SDS011;15921;52.034;20.650;2023-06-22T13:46:59;5.68;;;3.65;;
28766;SDS011;15921;52.034;20.650;2023-06-22T13:49:25;4.35;;;3.10;;
28766;SDS011;15921;52.034;20.650;2023-06-22T13:51:51;7.32;;;3.20;;
28766;SDS011;15921;52.034;20.650;2023-06-22T13:54:17;6.78;;;3.30;;
28766;SDS011;15921;52.034;20.650;2023-06-22T13:56:42;4.15;;;3.08;;
28766;SDS011;15921;52.034;20.650;2023-06-22T13:59:08;3.47;;;2.80;;
28766;SDS011;15921;52.034;20.650;2023-06-22T14:01:37;7.25;;;2.90;;
28766;SDS011;15921;52.034;20.650;2023-06-22T14:04:04;3.78;;;3.10;;
28766;SDS011;15921;52.034;20.650;2023-06-22T14:06:30;7.15;;;3.13;;
28766;SDS011;15921;52.034;20.650;2023-06-22T14:08:56;3.65;;;3.00;;
28766;SDS011;15921;52.034;20.650;2023-06-22T14:11:22;7.05;;;2.92;;
28766;SDS011;15921;52.034;20.650;2023-06-22T14:13:47;7.80;;;3.22;;
28766;SDS011;15921;52.034;20.650;2023-06-22T14:16:13;5.95;;;3.08;;
28766;SDS011;15921;52.034;20.650;2023-06-22T14:18:39;6.15;;;3.15;;
28766;SDS011;15921;52.034;20.650;2023-06-22T14:21:04;3.88;;;3.42;;
28766;SDS011;15921;52.034;20.650;2023-06-22T14:23:30;3.78;;;2.88;;
28766;SDS011;15921;52.034;20.650;2023-06-22T14:25:56;5.03;;;2.95;;
28766;SDS011;15921;52.034;20.650;2023-06-22T14:28:21;4.72;;;2.75;;
28766;SDS011;15921;52.034;20.650;2023-06-22T14:30:47;5.07;;;3.33;;
28766;SDS011;15921;52.034;20.650;2023-06-22T14:33:13;7.78;;;3.17;;